Observation data for Reese Center on 01/11/2018      Previous  Date  Next       Current Mesonet Observations  Soil Data  Daily Summary Page  Observations in Plain Language
KREE 110600Z 22017KT 07/M00 A2959 RMK A01 T00711001  RH  061%=      5-min Rain = 0
KREE 110605Z 22017KT 07/M00 A2959 RMK A01 T00741001  RH  060%=      5-min Rain = 0
KREE 110610Z 23017KT 08/M00 A2959 RMK A01 T00751001  RH  059%=      5-min Rain = 0
KREE 110615Z 23017G23KT 08/M00 A296 RMK A01 T00761002  RH  059%=      5-min Rain = 0
KREE 110620Z 22019G25KT 08/M00 A2959 RMK A01 T00761002  RH  058%=      5-min Rain = 0
KREE 110625Z 23018G24KT 08/M00 A296 RMK A01 T00781002  RH  058%=      5-min Rain = 0
KREE 110630Z 23017G23KT 08/M00 A296 RMK A01 T00761002  RH  058%=      5-min Rain = 0
KREE 110635Z 23017G23KT 08/M00 A296 RMK A01 T00751002  RH  059%=      5-min Rain = 0
KREE 110640Z 23018G23KT 08/M00 A2959 RMK A01 T00751003  RH  058%=      5-min Rain = 0
KREE 110645Z 23019G24KT 08/M00 A296 RMK A01 T00761003  RH  058%=      5-min Rain = 0
KREE 110650Z 23019KT 08/M00 A296 RMK A01 T00771004  RH  057%=      5-min Rain = 0
KREE 110655Z 23019G25KT 08/M00 A296 RMK A01 T00761004  RH  058%=      5-min Rain = 0
KREE 110700Z 23019G24KT 08/M01 A296 RMK A01 T00751005  RH  058%=      5-min Rain = 0
KREE 110705Z 24018G23KT 08/M01 A296 RMK A01 T00751005  RH  058%=      5-min Rain = 0
KREE 110710Z 24017G22KT 07/M01 A296 RMK A01 T00731005  RH  058%=      5-min Rain = 0
KREE 110715Z 24017G22KT 07/M01 A296 RMK A01 T00731005  RH  058%=      5-min Rain = 0
KREE 110720Z 25019G25KT 08/M01 A296 RMK A01 T00751005  RH  058%=      5-min Rain = 0
KREE 110725Z 24019G27KT 08/M01 A296 RMK A01 T00761005  RH  057%=      5-min Rain = 0
KREE 110730Z 24019G26KT 08/M01 A2961 RMK A01 T00781005  RH  056%=      5-min Rain = 0
KREE 110735Z 24018KT 08/M01 A2961 RMK A01 T00781005  RH  056%=      5-min Rain = 0
KREE 110740Z 25017G23KT 08/M01 A2962 RMK A01 T00781006  RH  056%=      5-min Rain = 0
KREE 110745Z 24020G25KT 08/M01 A2961 RMK A01 T00791006  RH  055%=      5-min Rain = 0
KREE 110750Z 24018G24KT 08/M01 A2962 RMK A01 T00791006  RH  056%=      5-min Rain = 0
KREE 110755Z 24018G23KT 08/M01 A2962 RMK A01 T00781006  RH  056%=      5-min Rain = 0
KREE 110800Z 24016G21KT 08/M01 A2963 RMK A01 T00771007  RH  056%=      5-min Rain = 0
KREE 110805Z 25018KT 08/M01 A2963 RMK A01 T00761006  RH  056%=      5-min Rain = 0
KREE 110810Z 25016KT 08/M01 A2963 RMK A01 T00761006  RH  057%=      5-min Rain = 0
KREE 110815Z 25016G21KT 07/M01 A2964 RMK A01 T00741006  RH  058%=      5-min Rain = 0
KREE 110820Z 25018KT 07/M01 A2964 RMK A01 T00731005  RH  058%=      5-min Rain = 0
KREE 110825Z 25016G21KT 07/M00 A2964 RMK A01 T00741004  RH  058%=      5-min Rain = 0
KREE 110830Z 25016G21KT 08/M00 A2964 RMK A01 T00751003  RH  058%=      5-min Rain = 0
KREE 110835Z 25018G23KT 08/M00 A2964 RMK A01 T00751003  RH  058%=      5-min Rain = 0
KREE 110840Z 26018KT 08/M00 A2965 RMK A01 T00751003  RH  058%=      5-min Rain = 0
KREE 110845Z 26017G22KT 08/M00 A2965 RMK A01 T00771002  RH  058%=      5-min Rain = 0
KREE 110850Z 26016KT 08/M00 A2965 RMK A01 T00761002  RH  058%=      5-min Rain = 0
KREE 110855Z 26016KT 08/M00 A2965 RMK A01 T00751002  RH  059%=      5-min Rain = 0
KREE 110900Z 26014G19KT 08/M00 A2966 RMK A01 T00751002  RH  059%=      5-min Rain = 0
KREE 110905Z 27013KT 07/M00 A2966 RMK A01 T00741002  RH  059%=      5-min Rain = 0
KREE 110910Z 28012KT 07/M00 A2967 RMK A01 T00731002  RH  060%=      5-min Rain = 0
KREE 110915Z 28012G17KT 07/M00 A2967 RMK A01 T00721002  RH  060%=      5-min Rain = 0
KREE 110920Z 27014KT 07/M00 A2967 RMK A01 T00731001  RH  060%=      5-min Rain = 0
KREE 110925Z 28013G18KT 07/M00 A2967 RMK A01 T00741001  RH  060%=      5-min Rain = 0
KREE 110930Z 29011G16KT 07/00 A2968 RMK A01 T007400-0  RH  060%=      5-min Rain = 0
KREE 110935Z 29011KT 07/00 A2968 RMK A01 T007400-0  RH  060%=      5-min Rain = 0
KREE 110940Z 29012KT 08/00 A2968 RMK A01 T00760001  RH  060%=      5-min Rain = 0
KREE 110945Z 30012KT 08/00 A2968 RMK A01 T00790002  RH  059%=      5-min Rain = 0
KREE 110950Z 31012KT 08/00 A2968 RMK A01 T00830003  RH  058%=      5-min Rain = 0
KREE 110955Z 31013KT 09/00 A2969 RMK A01 T00870003  RH  057%=      5-min Rain = 0
KREE 111000Z 33016G27KT 09/01 A2969 RMK A01 T00900007  RH  057%=      5-min Rain = 0
KREE 111005Z 35027G32KT 09/02 A297 RMK A01 T00900019  RH  062%=      5-min Rain = 0
KREE 111010Z 35027G34KT 09/02 A297 RMK A01 T00850020  RH  064%=      5-min Rain = 0
KREE 111015Z 35025G33KT 08/02 A297 RMK A01 T00810018  RH  065%=      5-min Rain = 0
KREE 111020Z 35026G34KT 08/02 A297 RMK A01 T00800016  RH  065%=      5-min Rain = 0
KREE 111025Z 36024G31KT 08/02 A2971 RMK A01 T00790015  RH  064%=      5-min Rain = 0
KREE 111030Z 36024G31KT 08/01 A2971 RMK A01 T00780013  RH  064%=      5-min Rain = 0
KREE 111035Z 35022G32KT 08/01 A2972 RMK A01 T00770012  RH  064%=      5-min Rain = 0
KREE 111040Z 00025G34KT 08/01 A2972 RMK A01 T00750010  RH  064%=      5-min Rain = 0
KREE 111045Z 36026G35KT 08/01 A2972 RMK A01 T00750007  RH  063%=      5-min Rain = 0
KREE 111050Z 00024G30KT 07/01 A2973 RMK A01 T00730006  RH  063%=      5-min Rain = 0
KREE 111055Z 00021G26KT 07/01 A2973 RMK A01 T00710007  RH  064%=      5-min Rain = 0
KREE 111100Z 35018G25KT 07/01 A2973 RMK A01 T00700008  RH  065%=      5-min Rain = 0
KREE 111105Z 35022G30KT 07/01 A2974 RMK A01 T00680008  RH  066%=      5-min Rain = 0
KREE 111110Z 36023G30KT 07/01 A2975 RMK A01 T00670006  RH  066%=      5-min Rain = 0
KREE 111115Z 35022G30KT 07/01 A2975 RMK A01 T00660006  RH  066%=      5-min Rain = 0
KREE 111120Z 35022G28KT 07/01 A2975 RMK A01 T00660006  RH  066%=      5-min Rain = 0
KREE 111125Z 35020G25KT 07/01 A2976 RMK A01 T00650006  RH  067%=      5-min Rain = 0
KREE 111130Z 35020G26KT 06/01 A2976 RMK A01 T00640006  RH  067%=      5-min Rain = 0
KREE 111135Z 35023G31KT 06/00 A2977 RMK A01 T00630004  RH  066%=      5-min Rain = 0
KREE 111140Z 35024G32KT 06/00 A2977 RMK A01 T00620003  RH  067%=      5-min Rain = 0
KREE 111145Z 00025G36KT 06/00 A2979 RMK A01 T00590001  RH  067%=      5-min Rain = 0
KREE 111150Z 00024G32KT 05/M00 A2979 RMK A01 T00531004  RH  067%=      5-min Rain = 0
KREE 111155Z 00028G39KT 05/M01 A298 RMK A01 T00481007  RH  068%=      5-min Rain = 0
KREE 111200Z 36027G34KT 05/M01 A298 RMK A01 T00461008  RH  068%=      5-min Rain = 0
KREE 111205Z 36026G33KT 04/M01 A2981 RMK A01 T00441009  RH  069%=      5-min Rain = 0
KREE 111210Z 36024G31KT 04/M01 A2981 RMK A01 T00421010  RH  070%=      5-min Rain = 0
KREE 111215Z 00022G29KT 04/M01 A2982 RMK A01 T00411010  RH  070%=      5-min Rain = 0
KREE 111220Z 36020KT 04/M01 A2982 RMK A01 T00411009  RH  071%=      5-min Rain = 0
KREE 111225Z 35018G24KT 04/M01 A2983 RMK A01 T00411009  RH  071%=      5-min Rain = 0
KREE 111230Z 35028G36KT 04/M01 A2983 RMK A01 T00401011  RH  070%=      5-min Rain = 0
KREE 111235Z 35023G30KT 04/M01 A2984 RMK A01 T00391012  RH  070%=      5-min Rain = 0
KREE 111240Z 34030G37KT 04/M02 A2984 RMK A01 T00381016  RH  069%=      5-min Rain = 0
KREE 111245Z 34028G36KT 03/M02 A2985 RMK A01 T00341019  RH  069%=      5-min Rain = 0
KREE 111250Z 35027G36KT 03/M02 A2985 RMK A01 T00311020  RH  070%=      5-min Rain = 0
KREE 111255Z 35028G35KT 03/M02 A2986 RMK A01 T00301020  RH  070%=      5-min Rain = 0
KREE 111300Z 36029G35KT 03/M02 A2986 RMK A01 T00281021  RH  071%=      5-min Rain = 0
KREE 111305Z 35025G30KT 03/M02 A2987 RMK A01 T00271021  RH  071%=      5-min Rain = 0
KREE 111310Z 35022G29KT 03/M02 A2987 RMK A01 T00261022  RH  072%=      5-min Rain = 0
KREE 111315Z 35020G26KT 03/M02 A2987 RMK A01 T00261022  RH  072%=      5-min Rain = 0
KREE 111320Z 35019G24KT 03/M02 A2988 RMK A01 T00251022  RH  072%=      5-min Rain = 0
KREE 111325Z 35016G21KT 03/M02 A2988 RMK A01 T00251022  RH  072%=      5-min Rain = 0
KREE 111330Z 35017G22KT 03/M02 A2989 RMK A01 T00261021  RH  072%=      5-min Rain = 0
KREE 111335Z 35024G30KT 02/M03 A2989 RMK A01 T00241026  RH  071%=      5-min Rain = 0
KREE 111340Z 34024G30KT 02/M03 A299 RMK A01 T00211031  RH  069%=      5-min Rain = 0
KREE 111345Z 35028G37KT 02/M03 A299 RMK A01 T00181034  RH  069%=      5-min Rain = 0
KREE 111350Z 35028G34KT 02/M04 A2991 RMK A01 T00151038  RH  069%=      5-min Rain = 0
KREE 111355Z 35026G32KT 01/M04 A2992 RMK A01 T00141041  RH  068%=      5-min Rain = 0
KREE 111400Z 35028G36KT 01/M04 A2992 RMK A01 T00121044  RH  067%=      5-min Rain = 0
KREE 111405Z 35027G35KT 01/M05 A2993 RMK A01 T00091047  RH  067%=      5-min Rain = 0
KREE 111410Z 35027G35KT 01/M05 A2993 RMK A01 T00071053  RH  065%=      5-min Rain = 0
KREE 111415Z 35024G37KT 01/M06 A2994 RMK A01 T00071055  RH  064%=      5-min Rain = 0
KREE 111420Z 35027G34KT 01/M06 A2994 RMK A01 T00051062  RH  061%=      5-min Rain = 0
KREE 111425Z 36027G38KT 00/M07 A2994 RMK A01 T00041065  RH  061%=      5-min Rain = 0
KREE 111430Z 35025G32KT 00/M07 A2995 RMK A01 T00041065  RH  060%=      5-min Rain = 0
KREE 111435Z 36024G30KT 01/M07 A2996 RMK A01 T00051065  RH  060%=      5-min Rain = 0
KREE 111440Z 36024G34KT 01/M07 A2996 RMK A01 T00051066  RH  060%=      5-min Rain = 0
KREE 111445Z 35023G31KT 01/M07 A2997 RMK A01 T00061066  RH  059%=      5-min Rain = 0
KREE 111450Z 36025G33KT 01/M07 A2997 RMK A01 T00061067  RH  059%=      5-min Rain = 0
KREE 111455Z 35024G30KT 01/M07 A2998 RMK A01 T00071066  RH  059%=      5-min Rain = 0
KREE 111500Z 35021G29KT 01/M07 A2999 RMK A01 T00081066  RH  059%=      5-min Rain = 0
KREE 111505Z 35024G30KT 01/M07 A2999 RMK A01 T00091068  RH  057%=      5-min Rain = 0
KREE 111510Z 35028G36KT 01/M07 A2999 RMK A01 T00091073  RH  055%=      5-min Rain = 0
KREE 111515Z 35032G40KT 01/M08 A30 RMK A01 T00081076  RH  054%=      5-min Rain = 0
KREE 111520Z 35031G39KT 01/M08 A30 RMK A01 T00071076  RH  054%=      5-min Rain = 0
KREE 111525Z 35028G38KT 01/M08 A30 RMK A01 T00051076  RH  055%=      5-min Rain = 0
KREE 111530Z 36025G32KT 01/M08 A3001 RMK A01 T00051076  RH  055%=      5-min Rain = 0
KREE 111535Z 35024G31KT 01/M08 A3001 RMK A01 T00061075  RH  055%=      5-min Rain = 0
KREE 111540Z 35027G35KT 01/M07 A3002 RMK A01 T00071074  RH  055%=      5-min Rain = 0
KREE 111545Z 35025G34KT 01/M07 A3003 RMK A01 T00101073  RH  054%=      5-min Rain = 0
KREE 111550Z 35026G33KT 02/M07 A3004 RMK A01 T00151073  RH  053%=      5-min Rain = 0
KREE 111555Z 35027G36KT 02/M07 A3004 RMK A01 T00181074  RH  051%=      5-min Rain = 0
KREE 111600Z 35025G34KT 02/M07 A3004 RMK A01 T00211074  RH  050%=      5-min Rain = 0
KREE 111605Z 36030G37KT 02/M08 A3005 RMK A01 T00221077  RH  049%=      5-min Rain = 0
KREE 111610Z 35025G32KT 02/M08 A3006 RMK A01 T00161077  RH  051%=      5-min Rain = 0
KREE 111615Z 36021G28KT 02/M07 A3006 RMK A01 T00171073  RH  052%=      5-min Rain = 0
KREE 111620Z 35024G32KT 02/M07 A3006 RMK A01 T00231073  RH  050%=      5-min Rain = 0
KREE 111625Z 35027G35KT 02/M08 A3007 RMK A01 T00221075  RH  049%=      5-min Rain = 0
KREE 111630Z 35029G35KT 02/M08 A3007 RMK A01 T00211077  RH  049%=      5-min Rain = 0
KREE 111635Z 36026G34KT 03/M08 A3008 RMK A01 T00261078  RH  047%=      5-min Rain = 0
KREE 111640Z 00028G35KT 03/M08 A3008 RMK A01 T00271080  RH  046%=      5-min Rain = 0
KREE 111645Z 36027G35KT 03/M08 A3008 RMK A01 T00271078  RH  046%=      5-min Rain = 0
KREE 111650Z 35024G31KT 03/M08 A3009 RMK A01 T00311078  RH  045%=      5-min Rain = 0
KREE 111655Z 35027G32KT 03/M08 A3009 RMK A01 T00311079  RH  045%=      5-min Rain = 0
KREE 111700Z 36026G33KT 03/M08 A3009 RMK A01 T00311080  RH  044%=      5-min Rain = 0
KREE 111705Z 36026G34KT 03/M08 A301 RMK A01 T00331081  RH  044%=      5-min Rain = 0
KREE 111710Z 36027G34KT 03/M08 A301 RMK A01 T00341083  RH  042%=      5-min Rain = 0
KREE 111715Z 35026G33KT 04/M09 A301 RMK A01 T00351089  RH  040%=      5-min Rain = 0
KREE 111720Z 00027G34KT 04/M09 A3011 RMK A01 T00361094  RH  039%=      5-min Rain = 0
KREE 111725Z 00027G34KT 04/M09 A3012 RMK A01 T00361094  RH  038%=      5-min Rain = 0
KREE 111730Z 00025G31KT 04/M09 A3012 RMK A01 T00411092  RH  038%=      5-min Rain = 0
KREE 111735Z 36026G32KT 04/M09 A3012 RMK A01 T00441092  RH  037%=      5-min Rain = 0
KREE 111740Z 00024G30KT 04/M09 A3012 RMK A01 T00411091  RH  038%=      5-min Rain = 0
KREE 111745Z 36026G33KT 04/M09 A3013 RMK A01 T00401093  RH  038%=      5-min Rain = 0
KREE 111750Z 36024G31KT 05/M09 A3013 RMK A01 T00451094  RH  036%=      5-min Rain = 0
KREE 111755Z 35025G31KT 05/M10 A3013 RMK A01 T00471096  RH  035%=      5-min Rain = 0
KREE 111800Z 35024G30KT 05/M09 A3013 RMK A01 T00471093  RH  036%=      5-min Rain = 0
KREE 111805Z 35024G29KT 05/M09 A3014 RMK A01 T00481094  RH  035%=      5-min Rain = 0
KREE 111810Z 36026G34KT 05/M10 A3014 RMK A01 T00501097  RH  034%=      5-min Rain = 0
KREE 111815Z 36026G33KT 05/M10 A3014 RMK A01 T00511097  RH  034%=      5-min Rain = 0
KREE 111820Z 00023G30KT 05/M10 A3014 RMK A01 T00521097  RH  034%=      5-min Rain = 0
KREE 111825Z 36022G31KT 05/M10 A3014 RMK A01 T00541096  RH  033%=      5-min Rain = 0
KREE 111830Z 35019G27KT 06/M09 A3014 RMK A01 T00561093  RH  034%=      5-min Rain = 0
KREE 111835Z 35023G32KT 06/M10 A3014 RMK A01 T00571095  RH  033%=      5-min Rain = 0
KREE 111840Z 36025G31KT 06/M10 A3014 RMK A01 T00581104  RH  031%=      5-min Rain = 0
KREE 111845Z 36023G29KT 06/M11 A3015 RMK A01 T00601105  RH  030%=      5-min Rain = 0
KREE 111850Z 35024G29KT 06/M11 A3015 RMK A01 T00621108  RH  029%=      5-min Rain = 0
KREE 111855Z 35024G33KT 06/M11 A3015 RMK A01 T00621107  RH  029%=      5-min Rain = 0
KREE 111900Z 36024G32KT 06/M11 A3015 RMK A01 T00641107  RH  029%=      5-min Rain = 0
KREE 111905Z 35026G33KT 06/M11 A3015 RMK A01 T00631109  RH  028%=      5-min Rain = 0
KREE 111910Z 36024G32KT 07/M11 A3015 RMK A01 T00651106  RH  029%=      5-min Rain = 0
KREE 111915Z 35024G31KT 07/M11 A3014 RMK A01 T00691106  RH  028%=      5-min Rain = 0
KREE 111920Z 36026G34KT 07/M11 A3014 RMK A01 T00691108  RH  027%=      5-min Rain = 0
KREE 111925Z 36025G33KT 07/M11 A3014 RMK A01 T00691107  RH  028%=      5-min Rain = 0
KREE 111930Z 36026G35KT 07/M11 A3014 RMK A01 T00701110  RH  027%=      5-min Rain = 0
KREE 111935Z 00024G31KT 07/M11 A3014 RMK A01 T00711109  RH  027%=      5-min Rain = 0
KREE 111940Z 36025KT 07/M11 A3014 RMK A01 T00731108  RH  027%=      5-min Rain = 0
KREE 111945Z 36026G34KT 07/M11 A3014 RMK A01 T00711107  RH  027%=      5-min Rain = 0
KREE 111950Z 01024G30KT 07/M11 A3013 RMK A01 T00731105  RH  027%=      5-min Rain = 0
KREE 111955Z 36024G31KT 08/M11 A3014 RMK A01 T00751105  RH  027%=      5-min Rain = 0
KREE 112000Z 35026G33KT 07/M11 A3014 RMK A01 T00741107  RH  027%=      5-min Rain = 0
KREE 112005Z 35024G34KT 08/M11 A3014 RMK A01 T00761106  RH  027%=      5-min Rain = 0
KREE 112010Z 36024G29KT 08/M11 A3014 RMK A01 T00761106  RH  027%=      5-min Rain = 0
KREE 112015Z 00021G28KT 08/M11 A3014 RMK A01 T00781105  RH  026%=      5-min Rain = 0
KREE 112020Z 01021G28KT 08/M10 A3014 RMK A01 T00811104  RH  026%=      5-min Rain = 0
KREE 112025Z 01020G28KT 08/M10 A3014 RMK A01 T00841104  RH  026%=      5-min Rain = 0
KREE 112030Z 00020G26KT 08/M10 A3014 RMK A01 T00821104  RH  026%=      5-min Rain = 0
KREE 112035Z 36019G25KT 08/M10 A3014 RMK A01 T00831103  RH  026%=      5-min Rain = 0
KREE 112040Z 01022G29KT 09/M11 A3015 RMK A01 T00851106  RH  025%=      5-min Rain = 0
KREE 112045Z 35020G25KT 08/M10 A3015 RMK A01 T00841104  RH  026%=      5-min Rain = 0
KREE 112050Z 00019G27KT 09/M11 A3015 RMK A01 T00861106  RH  025%=      5-min Rain = 0
KREE 112055Z 00022G28KT 09/M11 A3015 RMK A01 T00861111  RH  024%=      5-min Rain = 0
KREE 112100Z 01022G27KT 09/M11 A3015 RMK A01 T00861110  RH  024%=      5-min Rain = 0
KREE 112105Z 00019G25KT 09/M11 A3016 RMK A01 T00881110  RH  024%=      5-min Rain = 0
KREE 112110Z 00023G28KT 09/M12 A3016 RMK A01 T00861115  RH  023%=      5-min Rain = 0
KREE 112115Z 36021KT 08/M11 A3016 RMK A01 T00841114  RH  024%=      5-min Rain = 0
KREE 112120Z 36021G26KT 09/M11 A3017 RMK A01 T00851113  RH  024%=      5-min Rain = 0
KREE 112125Z 01021G27KT 09/M12 A3017 RMK A01 T00861115  RH  023%=      5-min Rain = 0
KREE 112130Z 00020G25KT 09/M11 A3017 RMK A01 T00861114  RH  023%=      5-min Rain = 0
KREE 112135Z 36017G23KT 09/M11 A3017 RMK A01 T00861113  RH  023%=      5-min Rain = 0
KREE 112140Z 36018G26KT 09/M11 A3017 RMK A01 T00891113  RH  023%=      5-min Rain = 0
KREE 112145Z 35017G22KT 09/M11 A3018 RMK A01 T00871114  RH  023%=      5-min Rain = 0
KREE 112150Z 01019G26KT 09/M11 A3018 RMK A01 T00881114  RH  023%=      5-min Rain = 0
KREE 112155Z 00016G22KT 09/M11 A3018 RMK A01 T00891113  RH  023%=      5-min Rain = 0
KREE 112200Z 36019G25KT 09/M12 A3018 RMK A01 T00891115  RH  023%=      5-min Rain = 0
KREE 112205Z 36020KT 09/M12 A3018 RMK A01 T00871119  RH  022%=      5-min Rain = 0
KREE 112210Z 01019G24KT 09/M12 A3018 RMK A01 T00861119  RH  022%=      5-min Rain = 0
KREE 112215Z 00018G23KT 09/M12 A3018 RMK A01 T00861122  RH  022%=      5-min Rain = 0
KREE 112220Z 01018G23KT 09/M12 A3019 RMK A01 T00861119  RH  022%=      5-min Rain = 0
KREE 112225Z 35021G27KT 09/M12 A3019 RMK A01 T00851123  RH  022%=      5-min Rain = 0
KREE 112230Z 00019G24KT 08/M13 A3019 RMK A01 T00841125  RH  022%=      5-min Rain = 0
KREE 112235Z 01019G24KT 08/M13 A3019 RMK A01 T00831125  RH  022%=      5-min Rain = 0
KREE 112240Z 01019G24KT 08/M12 A302 RMK A01 T00811122  RH  023%=      5-min Rain = 0
KREE 112245Z 01016G22KT 08/M12 A302 RMK A01 T00801119  RH  023%=      5-min Rain = 0
KREE 112250Z 01015KT 08/M12 A302 RMK A01 T00811117  RH  023%=      5-min Rain = 0
KREE 112255Z 01016KT 08/M12 A302 RMK A01 T00791117  RH  024%=      5-min Rain = 0
KREE 112300Z 01014KT 08/M12 A3021 RMK A01 T00771116  RH  024%=      5-min Rain = 0
KREE 112305Z 01014KT 08/M12 A3021 RMK A01 T00761116  RH  025%=      5-min Rain = 0
KREE 112310Z 01014KT 08/M12 A3021 RMK A01 T00751115  RH  025%=      5-min Rain = 0
KREE 112315Z 00013KT 07/M11 A3021 RMK A01 T00741114  RH  025%=      5-min Rain = 0
KREE 112320Z 00013KT 07/M11 A3021 RMK A01 T00741113  RH  026%=      5-min Rain = 0
KREE 112325Z 00012KT 07/M11 A3022 RMK A01 T00721112  RH  026%=      5-min Rain = 0
KREE 112330Z 36012KT 07/M11 A3022 RMK A01 T00711112  RH  026%=      5-min Rain = 0
KREE 112335Z 00010G15KT 07/M11 A3022 RMK A01 T00691112  RH  026%=      5-min Rain = 0
KREE 112340Z 00010KT 07/M11 A3023 RMK A01 T00671112  RH  027%=      5-min Rain = 0
KREE 112345Z 00008KT 06/M11 A3023 RMK A01 T00631113  RH  028%=      5-min Rain = 0
KREE 112350Z 00008KT 06/M11 A3023 RMK A01 T00591112  RH  028%=      5-min Rain = 0
KREE 112355Z 00008KT 06/M12 A3023 RMK A01 T00551115  RH  028%=      5-min Rain = 0
KREE 120000Z 00008KT 05/M12 A3024 RMK A01 T00521119  RH  028%=      5-min Rain = 0
KREE 120005Z 00008KT 05/M12 A3024 RMK A01 T00471119  RH  029%=      5-min Rain = 0
KREE 120010Z 00009KT 04/M12 A3024 RMK A01 T00411119  RH  030%=      5-min Rain = 0
KREE 120015Z 01008KT 04/M12 A3024 RMK A01 T00361119  RH  032%=      5-min Rain = 0
KREE 120020Z 00006KT 03/M12 A3024 RMK A01 T00331119  RH  032%=      5-min Rain = 0
KREE 120025Z 35006KT 03/M12 A3024 RMK A01 T00291119  RH  033%=      5-min Rain = 0
KREE 120030Z 36006KT 03/M12 A3024 RMK A01 T00271120  RH  033%=      5-min Rain = 0
KREE 120035Z 01006KT 03/M12 A3024 RMK A01 T00261121  RH  033%=      5-min Rain = 0
KREE 120040Z 00005KT 02/M12 A3024 RMK A01 T00231121  RH  034%=      5-min Rain = 0
KREE 120045Z 36005KT 02/M12 A3025 RMK A01 T00221121  RH  034%=      5-min Rain = 0
KREE 120050Z 36005KT 02/M12 A3025 RMK A01 T00191121  RH  035%=      5-min Rain = 0
KREE 120055Z 01006KT 02/M12 A3025 RMK A01 T00181121  RH  035%=      5-min Rain = 0
KREE 120100Z 01006KT 02/M12 A3025 RMK A01 T00171120  RH  036%=      5-min Rain = 0
KREE 120105Z 01006KT 01/M12 A3025 RMK A01 T00131121  RH  037%=      5-min Rain = 0
KREE 120110Z 01008KT 01/M12 A3025 RMK A01 T00091122  RH  037%=      5-min Rain = 0
KREE 120115Z 01009KT 00/M12 A3025 RMK A01 T00021122  RH  039%=      5-min Rain = 0
KREE 120120Z 01010KT M00/M12 A3025 RMK A01 T10011119  RH  041%=      5-min Rain = 0
KREE 120125Z 01009KT 00/12 A3025 RMK A01 T00-00-117  RH  041%=      5-min Rain = 0
KREE 120130Z 01008KT 00/12 A3026 RMK A01 T00000-118  RH  041%=      5-min Rain = 0
KREE 120135Z 01007KT M00/M12 A3026 RMK A01 T10011118  RH  041%=      5-min Rain = 0
KREE 120140Z 01006KT M00/M12 A3026 RMK A01 T10011118  RH  041%=      5-min Rain = 0
KREE 120145Z 02006KT M00/M12 A3026 RMK A01 T10021119  RH  042%=      5-min Rain = 0
KREE 120150Z 02005KT M00/M12 A3026 RMK A01 T10021118  RH  042%=      5-min Rain = 0
KREE 120155Z 02005KT 00/12 A3026 RMK A01 T00000-118  RH  041%=      5-min Rain = 0
KREE 120200Z 01007KT M00/M12 A3026 RMK A01 T10011118  RH  041%=      5-min Rain = 0
KREE 120205Z 02007KT M00/M12 A3026 RMK A01 T10041119  RH  042%=      5-min Rain = 0
KREE 120210Z 02007KT M01/M12 A3026 RMK A01 T10091121  RH  043%=      5-min Rain = 0
KREE 120215Z 02007KT M01/M12 A3026 RMK A01 T10121122  RH  044%=      5-min Rain = 0
KREE 120220Z 01006KT M01/M12 A3026 RMK A01 T10131121  RH  044%=      5-min Rain = 0
KREE 120225Z 02007KT M01/M12 A3026 RMK A01 T10121121  RH  044%=      5-min Rain = 0
KREE 120230Z 02008KT M01/M12 A3026 RMK A01 T10131121  RH  044%=      5-min Rain = 0
KREE 120235Z 02007KT M02/M12 A3026 RMK A01 T10151121  RH  045%=      5-min Rain = 0
KREE 120240Z 02005KT M02/M12 A3026 RMK A01 T10161121  RH  045%=      5-min Rain = 0
KREE 120245Z 01005KT M01/M12 A3026 RMK A01 T10131118  RH  046%=      5-min Rain = 0
KREE 120250Z 02005KT M01/M12 A3026 RMK A01 T10101118  RH  044%=      5-min Rain = 0
KREE 120255Z 03005KT M01/M12 A3026 RMK A01 T10121119  RH  044%=      5-min Rain = 0
KREE 120300Z 03005KT M01/M12 A3026 RMK A01 T10121118  RH  045%=      5-min Rain = 0
KREE 120305Z 03005KT M01/M12 A3026 RMK A01 T10111117  RH  045%=      5-min Rain = 0
KREE 120310Z 03005KT M01/M12 A3026 RMK A01 T10131119  RH  045%=      5-min Rain = 0
KREE 120315Z 03007KT M02/M12 A3025 RMK A01 T10161119  RH  046%=      5-min Rain = 0
KREE 120320Z 03008KT M02/M12 A3025 RMK A01 T10171117  RH  047%=      5-min Rain = 0
KREE 120325Z 03008KT M02/M11 A3026 RMK A01 T10151114  RH  047%=      5-min Rain = 0
KREE 120330Z 04007KT M01/M11 A3026 RMK A01 T10071111  RH  046%=      5-min Rain = 0
KREE 120335Z 04007KT M00/M11 A3025 RMK A01 T10011112  RH  044%=      5-min Rain = 0
KREE 120340Z 04006KT M00/M12 A3025 RMK A01 T10041115  RH  044%=      5-min Rain = 0
KREE 120345Z 04007KT M01/M11 A3026 RMK A01 T10051112  RH  045%=      5-min Rain = 0
KREE 120350Z 04005KT M01/M12 A3026 RMK A01 T10061115  RH  044%=      5-min Rain = 0
KREE 120355Z 05004KT M01/M11 A3026 RMK A01 T10091114  RH  045%=      5-min Rain = 0
KREE 120400Z 05004KT M01/M11 A3026 RMK A01 T10081112  RH  046%=      5-min Rain = 0
KREE 120405Z 05004KT M00/M11 A3026 RMK A01 T10041112  RH  044%=      5-min Rain = 0
KREE 120410Z 04004KT M00/M12 A3026 RMK A01 T10041115  RH  043%=      5-min Rain = 0
KREE 120415Z 03003KT M01/M12 A3026 RMK A01 T10101116  RH  045%=      5-min Rain = 0
KREE 120420Z 04002KT M01/M12 A3027 RMK A01 T10141117  RH  046%=      5-min Rain = 0
KREE 120425Z 05002KT M02/M12 A3028 RMK A01 T10241120  RH  048%=      5-min Rain = 0
KREE 120430Z 05002KT M03/M12 A3028 RMK A01 T10291120  RH  050%=      5-min Rain = 0
KREE 120435Z 04002KT M03/M12 A3028 RMK A01 T10301122  RH  050%=      5-min Rain = 0
KREE 120440Z 03002KT M03/M12 A3028 RMK A01 T10311123  RH  050%=      5-min Rain = 0
KREE 120445Z 04001KT M03/M12 A3028 RMK A01 T10311121  RH  050%=      5-min Rain = 0
KREE 120450Z 04001KT M03/M12 A3028 RMK A01 T10281119  RH  050%=      5-min Rain = 0
KREE 120455Z 05001KT M03/M12 A3028 RMK A01 T10281123  RH  048%=      5-min Rain = 0
KREE 120500Z 05000KT M03/M13 A3028 RMK A01 T10311127  RH  048%=      5-min Rain = 0
KREE 120505Z 05000KT M03/M12 A3028 RMK A01 T10331124  RH  050%=      5-min Rain = 0
KREE 120510Z 05001KT M03/M12 A3028 RMK A01 T10321121  RH  051%=      5-min Rain = 0
KREE 120515Z 05002KT M03/M11 A3028 RMK A01 T10281114  RH  052%=      5-min Rain = 0
KREE 120520Z 05002KT M03/M12 A3028 RMK A01 T10251116  RH  050%=      5-min Rain = 0
KREE 120525Z 05002KT M02/M12 A3027 RMK A01 T10231115  RH  050%=      5-min Rain = 0
KREE 120530Z 04002KT M03/M12 A3027 RMK A01 T10251116  RH  050%=      5-min Rain = 0
KREE 120535Z 05001KT M03/M12 A3027 RMK A01 T10291119  RH  051%=      5-min Rain = 0
KREE 120540Z 05002KT M03/M12 A3027 RMK A01 T10311115  RH  053%=      5-min Rain = 0
KREE 120545Z 04002KT M03/M12 A3027 RMK A01 T10301119  RH  051%=      5-min Rain = 0
KREE 120550Z 04001KT M03/M12 A3027 RMK A01 T10341122  RH  051%=      5-min Rain = 0
KREE 120555Z 05001KT M04/M12 A3027 RMK A01 T10371121  RH  053%=      5-min Rain = 0

Page generated in 0.0095 seconds.